createdAt,value
2018-11-29T00:01:43.396Z,4.20
2018-11-29T00:04:09.385Z,4.16
2018-11-29T00:06:36.061Z,4.17
2018-11-29T00:09:02.021Z,4.23
2018-11-29T00:11:28.011Z,4.41
2018-11-29T00:13:53.994Z,4.39
2018-11-29T00:16:19.972Z,4.20
2018-11-29T00:18:45.950Z,4.00
2018-11-29T00:21:12.029Z,4.07
2018-11-29T00:23:38.004Z,4.12
2018-11-29T00:26:03.991Z,4.31
2018-11-29T00:28:29.971Z,4.42
2018-11-29T00:30:55.972Z,4.47
2018-11-29T00:33:21.955Z,4.04
2018-11-29T00:35:47.996Z,3.99
2018-11-29T00:38:13.950Z,4.14
2018-11-29T00:40:39.904Z,4.25
2018-11-29T00:43:05.858Z,4.47
2018-11-29T00:45:31.832Z,4.88
2018-11-29T00:47:57.811Z,4.62
2018-11-29T00:50:23.786Z,5.42
2018-11-29T00:52:49.749Z,5.59
2018-11-29T00:55:15.731Z,5.85
2018-11-29T00:57:41.704Z,6.43
2018-11-29T01:00:07.673Z,5.85
2018-11-29T01:02:33.677Z,6.35
2018-11-29T01:04:59.658Z,5.82
2018-11-29T01:07:25.671Z,5.58
2018-11-29T01:09:51.666Z,5.80
2018-11-29T01:12:17.628Z,5.55
2018-11-29T01:14:43.590Z,5.83
2018-11-29T01:17:09.583Z,5.61
2018-11-29T01:19:35.553Z,5.55
2018-11-29T01:22:01.536Z,6.05
2018-11-29T01:24:27.532Z,5.51
2018-11-29T01:26:53.533Z,5.94
2018-11-29T01:29:19.504Z,5.60
2018-11-29T01:31:45.495Z,6.31
2018-11-29T01:34:11.449Z,5.63
2018-11-29T01:36:37.420Z,6.09
2018-11-29T01:39:03.400Z,5.89
2018-11-29T01:41:29.378Z,5.57
2018-11-29T01:43:55.349Z,5.37
2018-11-29T01:46:21.347Z,5.04
2018-11-29T01:48:47.331Z,4.94
2018-11-29T01:51:13.307Z,5.00
2018-11-29T01:53:39.263Z,4.84
2018-11-29T01:56:05.225Z,4.49
2018-11-29T01:58:31.227Z,4.73
2018-11-29T02:00:57.322Z,5.23
2018-11-29T02:03:23.322Z,4.78
2018-11-29T02:05:49.314Z,4.81
2018-11-29T02:08:15.296Z,4.41
2018-11-29T02:10:41.253Z,4.69
2018-11-29T02:13:07.216Z,5.16
2018-11-29T02:15:35.341Z,4.72
2018-11-29T02:18:01.304Z,4.26
2018-11-29T02:20:27.281Z,4.61
2018-11-29T02:22:53.239Z,4.58
2018-11-29T02:25:19.197Z,4.46
2018-11-29T02:27:45.189Z,4.07
2018-11-29T02:30:11.175Z,4.18
2018-11-29T02:32:37.163Z,3.67
2018-11-29T02:35:03.148Z,3.77
2018-11-29T02:37:29.144Z,4.08
2018-11-29T02:39:55.100Z,4.26
2018-11-29T02:42:21.076Z,3.61
2018-11-29T02:44:47.049Z,4.28
2018-11-29T02:47:13.037Z,3.81
2018-11-29T02:54:45.813Z,3.70
2018-11-29T02:57:11.800Z,3.64
2018-11-29T02:59:37.781Z,3.71
2018-11-29T03:02:03.790Z,3.81
2018-11-29T03:04:29.748Z,3.78
2018-11-29T03:06:55.743Z,3.93
2018-11-29T03:09:21.700Z,4.08
2018-11-29T03:11:47.719Z,3.95
2018-11-29T03:14:13.677Z,4.20
2018-11-29T03:16:39.660Z,3.61
2018-11-29T03:19:05.640Z,4.46
2018-11-29T03:21:31.617Z,5.29
2018-11-29T03:23:57.607Z,5.22
2018-11-29T03:26:23.589Z,4.61
2018-11-29T03:28:49.569Z,4.85
2018-11-29T03:31:15.557Z,4.84
2018-11-29T03:33:41.538Z,3.71
2018-11-29T03:36:07.511Z,3.14
2018-11-29T03:38:33.498Z,2.97
2018-11-29T03:40:59.468Z,3.15
2018-11-29T03:43:25.443Z,3.24
2018-11-29T03:45:51.406Z,3.30
2018-11-29T03:48:17.387Z,2.87
2018-11-29T03:50:43.401Z,3.02
2018-11-29T03:53:09.394Z,2.55
2018-11-29T03:55:35.373Z,2.46
2018-11-29T03:58:01.332Z,2.46
2018-11-29T04:00:27.314Z,2.54
2018-11-29T04:02:53.313Z,2.75
2018-11-29T04:05:19.301Z,3.02
2018-11-29T04:07:45.272Z,2.96
2018-11-29T04:10:11.237Z,3.45
2018-11-29T04:12:37.212Z,3.24
2018-11-29T04:15:03.223Z,2.86
2018-11-29T04:17:29.216Z,3.18
2018-11-29T04:19:55.183Z,3.02
2018-11-29T04:22:21.143Z,3.17
2018-11-29T04:24:47.151Z,3.33
2018-11-29T04:27:13.109Z,3.08
2018-11-29T04:29:39.160Z,3.72
2018-11-29T04:32:05.143Z,3.76
2018-11-29T04:34:31.138Z,3.61
2018-11-29T04:39:31.074Z,3.44
2018-11-29T04:41:57.049Z,3.52
2018-11-29T04:44:23.009Z,3.70
2018-11-29T04:49:21.707Z,4.14
2018-11-29T04:51:47.672Z,4.14
2018-11-29T04:54:13.710Z,3.91
2018-11-29T04:56:39.693Z,3.41
2018-11-29T04:59:05.687Z,3.69
2018-11-29T05:01:31.640Z,4.17
2018-11-29T05:03:57.628Z,2.92
2018-11-29T05:06:23.700Z,2.97
2018-11-29T05:08:49.690Z,3.05
2018-11-29T05:11:15.672Z,3.24
2018-11-29T05:13:41.687Z,2.92
2018-11-29T05:16:07.655Z,3.59
2018-11-29T05:18:33.631Z,3.42
2018-11-29T05:20:59.594Z,3.54
2018-11-29T05:23:25.590Z,3.69
2018-11-29T05:25:51.544Z,3.40
2018-11-29T05:28:17.555Z,3.86
2018-11-29T05:30:43.526Z,3.06
2018-11-29T05:33:09.528Z,3.09
2018-11-29T05:35:35.497Z,3.16
2018-11-29T05:38:01.460Z,2.84
2018-11-29T05:40:27.418Z,2.86
2018-11-29T05:42:53.380Z,2.83
2018-11-29T05:45:19.351Z,2.31
2018-11-29T05:47:45.323Z,2.54
2018-11-29T05:50:11.295Z,2.69
2018-11-29T05:52:37.300Z,3.67
2018-11-29T05:55:03.277Z,2.90
2018-11-29T05:57:29.243Z,3.20
2018-11-29T05:59:55.228Z,3.35
2018-11-29T06:02:21.201Z,3.16
2018-11-29T06:04:47.180Z,3.01
2018-11-29T06:07:13.160Z,2.73
2018-11-29T06:09:39.149Z,2.69
2018-11-29T06:12:05.129Z,2.10
2018-11-29T06:14:31.105Z,2.55
2018-11-29T06:16:57.067Z,2.69
2018-11-29T06:19:23.041Z,2.65
2018-11-29T06:21:49.017Z,2.08
2018-11-29T06:24:15.047Z,2.12
2018-11-29T06:26:41.034Z,2.87
2018-11-29T06:29:07.046Z,2.95
2018-11-29T06:31:33.100Z,2.29
2018-11-29T06:33:59.103Z,2.39
2018-11-29T06:36:25.067Z,2.63
2018-11-29T06:38:51.052Z,2.35
2018-11-29T06:41:17.038Z,1.98
2018-11-29T06:43:43.030Z,2.81
2018-11-29T06:51:14.018Z,1.97
2018-11-29T06:53:40.019Z,2.02
2018-11-29T06:56:06.019Z,2.24
2018-11-29T06:58:31.999Z,2.76
2018-11-29T07:00:57.984Z,2.03
2018-11-29T07:03:28.744Z,2.25
2018-11-29T07:05:49.962Z,2.47
2018-11-29T07:08:15.920Z,2.66
2018-11-29T07:10:41.887Z,2.58
2018-11-29T07:13:07.870Z,2.16
2018-11-29T07:15:33.853Z,2.38
2018-11-29T07:17:59.814Z,2.72
2018-11-29T07:20:25.794Z,2.26
2018-11-29T07:22:51.755Z,2.26
2018-11-29T07:25:17.744Z,2.62
2018-11-29T07:27:43.763Z,2.29
2018-11-29T07:30:09.747Z,2.42
2018-11-29T07:32:35.726Z,2.84
2018-11-29T07:35:01.718Z,2.49
2018-11-29T07:37:27.698Z,2.23
2018-11-29T07:39:53.694Z,2.50
2018-11-29T07:42:19.673Z,2.45
2018-11-29T07:44:45.653Z,2.42
2018-11-29T07:47:11.628Z,2.53
2018-11-29T07:49:37.586Z,2.54
2018-11-29T07:52:03.549Z,2.30
2018-11-29T07:54:29.528Z,2.33
2018-11-29T07:56:55.487Z,2.53
2018-11-29T07:59:21.460Z,2.83
2018-11-29T08:01:47.468Z,2.72
2018-11-29T08:04:13.448Z,2.61
2018-11-29T08:06:42.896Z,2.96
2018-11-29T08:09:08.877Z,3.44
2018-11-29T08:11:34.835Z,2.88
2018-11-29T08:14:00.809Z,2.82
2018-11-29T08:16:26.790Z,2.73
2018-11-29T08:18:52.770Z,3.13
2018-11-29T08:21:18.750Z,3.16
2018-11-29T08:23:44.713Z,3.65
2018-11-29T08:26:10.673Z,3.82
2018-11-29T08:28:36.643Z,3.46
2018-11-29T08:31:02.631Z,3.66
2018-11-29T08:33:28.593Z,3.59
2018-11-29T08:38:26.299Z,3.12
2018-11-29T08:40:52.273Z,3.37
2018-11-29T08:43:18.287Z,3.28
2018-11-29T08:45:44.264Z,3.17
2018-11-29T08:48:10.241Z,3.11
2018-11-29T08:50:36.239Z,3.57
2018-11-29T08:53:02.238Z,3.96
2018-11-29T08:55:28.248Z,3.59
2018-11-29T08:57:54.260Z,3.30
2018-11-29T09:00:20.229Z,3.52
2018-11-29T09:02:46.491Z,3.60
2018-11-29T09:05:12.478Z,3.63
2018-11-29T09:07:38.432Z,3.59
2018-11-29T09:10:04.376Z,3.50
2018-11-29T09:12:30.340Z,3.60
2018-11-29T09:14:56.309Z,3.46
2018-11-29T09:17:22.263Z,3.73
2018-11-29T09:19:48.218Z,3.31
2018-11-29T09:22:14.170Z,3.56
2018-11-29T09:24:40.123Z,3.39
2018-11-29T09:27:06.292Z,3.29
2018-11-29T09:29:32.282Z,3.59
2018-11-29T09:31:58.286Z,3.52
2018-11-29T09:34:24.268Z,3.96
2018-11-29T09:36:50.235Z,4.20
2018-11-29T09:39:16.208Z,3.76
2018-11-29T09:41:42.205Z,3.42
2018-11-29T09:44:08.188Z,3.79
2018-11-29T09:46:37.541Z,3.78
2018-11-29T09:49:03.512Z,3.54
2018-11-29T09:51:29.484Z,3.60
2018-11-29T09:53:55.457Z,3.73
2018-11-29T09:56:21.520Z,3.72
2018-11-29T09:58:47.495Z,3.74
2018-11-29T10:01:13.477Z,3.43
2018-11-29T10:03:39.441Z,3.51
2018-11-29T10:06:05.437Z,3.96
2018-11-29T10:08:31.424Z,3.85
2018-11-29T10:10:58.594Z,3.62
2018-11-29T10:13:24.627Z,3.69
2018-11-29T10:15:50.632Z,3.68
2018-11-29T10:18:16.629Z,3.66
2018-11-29T10:20:42.725Z,3.44
2018-11-29T10:23:08.721Z,3.83
2018-11-29T10:25:34.701Z,3.95
2018-11-29T10:28:00.671Z,3.89
2018-11-29T10:30:26.628Z,4.08
2018-11-29T10:32:52.636Z,3.78
2018-11-29T10:35:18.643Z,4.22
2018-11-29T10:37:44.630Z,4.52
2018-11-29T10:40:10.605Z,4.09
2018-11-29T10:42:36.599Z,4.39
2018-11-29T10:45:02.554Z,4.05
2018-11-29T10:47:28.520Z,4.56
2018-11-29T10:49:54.492Z,4.33
2018-11-29T10:52:20.484Z,4.28
2018-11-29T10:54:46.487Z,4.45
2018-11-29T10:57:12.490Z,4.17
2018-11-29T10:59:38.481Z,4.13
2018-11-29T11:02:04.491Z,4.72
2018-11-29T11:04:30.459Z,4.51
2018-11-29T11:06:56.472Z,4.57
2018-11-29T11:09:25.777Z,4.71
2018-11-29T11:11:51.771Z,4.12
2018-11-29T11:14:17.757Z,4.22
2018-11-29T11:16:43.764Z,4.32
2018-11-29T11:19:09.801Z,4.40
2018-11-29T11:21:35.832Z,4.29
2018-11-29T11:24:01.813Z,4.60
2018-11-29T11:26:32.020Z,4.34
2018-11-29T11:28:58.621Z,4.30
2018-11-29T11:31:31.071Z,4.43
2018-11-29T11:33:52.608Z,4.12
2018-11-29T11:36:18.583Z,4.17
2018-11-29T11:38:44.590Z,4.03
2018-11-29T11:41:10.569Z,3.69
2018-11-29T11:43:36.553Z,4.03
2018-11-29T11:46:02.589Z,3.94
2018-11-29T11:48:28.584Z,3.96
2018-11-29T11:50:54.563Z,4.37
2018-11-29T11:53:20.551Z,4.33
2018-11-29T11:55:53.304Z,4.10
2018-11-29T11:58:12.935Z,4.46
2018-11-29T12:00:38.937Z,4.44
2018-11-29T12:03:05.211Z,4.10
2018-11-29T12:05:31.203Z,4.49
2018-11-29T12:07:57.208Z,4.35
2018-11-29T12:10:24.067Z,4.37
2018-11-29T12:12:50.063Z,4.23
2018-11-29T12:15:16.051Z,4.23
2018-11-29T12:17:42.044Z,4.46
2018-11-29T12:20:08.028Z,4.47
2018-11-29T12:22:34.017Z,4.04
2018-11-29T12:24:59.978Z,4.55
2018-11-29T12:27:25.941Z,4.17
2018-11-29T12:29:51.935Z,4.01
2018-11-29T12:32:17.927Z,4.05
2018-11-29T12:34:43.899Z,4.09
2018-11-29T12:37:09.870Z,4.06
2018-11-29T12:39:35.853Z,4.12
2018-11-29T12:42:01.826Z,4.15
2018-11-29T12:44:27.822Z,4.10
2018-11-29T12:46:53.792Z,4.41
2018-11-29T12:49:19.793Z,4.11
2018-11-29T12:51:45.799Z,3.83
2018-11-29T12:54:11.786Z,4.14
2018-11-29T12:56:37.889Z,3.98
2018-11-29T12:59:04.562Z,4.13
2018-11-29T13:01:31.575Z,4.09
2018-11-29T13:03:58.361Z,4.43
2018-11-29T13:06:24.320Z,4.33
2018-11-29T13:08:50.335Z,4.08
2018-11-29T13:11:16.351Z,3.90
2018-11-29T13:13:42.316Z,4.25
2018-11-29T13:16:08.332Z,3.90
2018-11-29T13:18:34.859Z,4.11
2018-11-29T13:21:00.884Z,4.08
2018-11-29T13:23:26.908Z,4.16
2018-11-29T13:25:52.886Z,4.01
2018-11-29T13:28:18.908Z,4.31
2018-11-29T13:30:46.088Z,4.27
2018-11-29T13:33:15.719Z,4.08
2018-11-29T13:35:41.877Z,4.09
2018-11-29T13:38:07.873Z,4.20
2018-11-29T13:40:33.879Z,3.97
2018-11-29T13:42:59.952Z,3.90
2018-11-29T13:45:26.002Z,4.15
2018-11-29T13:47:57.316Z,4.00
2018-11-29T13:50:24.560Z,4.00
2018-11-29T13:52:50.682Z,3.89
2018-11-29T13:55:16.740Z,3.92
2018-11-29T13:57:42.771Z,3.82
2018-11-29T14:00:08.795Z,3.84
2018-11-29T14:02:34.774Z,4.00
2018-11-29T14:05:00.903Z,3.46
2018-11-29T14:07:26.911Z,3.82
2018-11-29T14:09:52.917Z,3.66
2018-11-29T14:12:23.983Z,3.66
2018-11-29T14:14:49.963Z,3.90
2018-11-29T14:17:15.956Z,4.12
2018-11-29T14:19:41.955Z,4.30
2018-11-29T14:22:07.925Z,4.33
2018-11-29T14:24:33.896Z,4.30
2018-11-29T14:26:59.891Z,4.00
2018-11-29T14:29:25.869Z,4.34
2018-11-29T14:31:51.956Z,3.96
2018-11-29T14:34:18.023Z,3.96
2018-11-29T14:36:44.051Z,3.70
2018-11-29T14:39:10.088Z,3.73
2018-11-29T14:41:36.073Z,3.97
2018-11-29T14:44:02.091Z,4.18
2018-11-29T14:46:28.081Z,4.04
2018-11-29T14:48:54.064Z,3.83
2018-11-29T14:51:20.048Z,3.80
2018-11-29T14:53:46.034Z,3.64
2018-11-29T14:56:12.064Z,3.71
2018-11-29T14:58:37.993Z,3.57
2018-11-29T15:01:05.383Z,3.56
2018-11-29T15:08:38.488Z,3.67
2018-11-29T15:11:04.495Z,3.08
2018-11-29T15:13:30.547Z,3.57
2018-11-29T15:15:57.436Z,3.56
2018-11-29T15:18:23.431Z,3.48
2018-11-29T15:20:49.444Z,3.61
2018-11-29T15:23:15.414Z,3.68
2018-11-29T15:25:41.410Z,3.63
2018-11-29T15:28:07.383Z,3.48
2018-11-29T15:30:33.356Z,3.35
2018-11-29T15:32:59.335Z,3.53
2018-11-29T15:35:25.389Z,3.68
2018-11-29T15:37:53.075Z,3.51
2018-11-29T15:40:19.078Z,3.57
2018-11-29T15:42:45.226Z,3.80
2018-11-29T15:47:43.174Z,3.46
2018-11-29T15:50:10.241Z,3.64
2018-11-29T15:52:36.354Z,3.71
2018-11-29T15:55:02.332Z,3.47
2018-11-29T15:57:34.673Z,3.33
2018-11-29T15:59:55.971Z,3.15
2018-11-29T16:02:21.998Z,3.07
2018-11-29T16:04:48.586Z,3.14
2018-11-29T16:07:14.601Z,3.22
2018-11-29T16:09:41.724Z,3.23
2018-11-29T16:12:08.791Z,3.45
2018-11-29T16:14:35.825Z,3.19
2018-11-29T16:17:01.916Z,3.18
2018-11-29T16:19:27.899Z,3.48
2018-11-29T16:21:53.924Z,3.51
2018-11-29T16:24:19.938Z,3.52
2018-11-29T16:26:46.692Z,3.51
2018-11-29T16:29:12.668Z,3.60
2018-11-29T16:31:38.742Z,3.42
2018-11-29T16:34:04.750Z,3.50
2018-11-29T16:36:30.742Z,3.63
2018-11-29T16:38:57.547Z,3.49
2018-11-29T16:41:23.529Z,3.89
2018-11-29T16:43:49.553Z,3.35
2018-11-29T16:46:16.409Z,3.48
2018-11-29T16:48:42.401Z,3.54
2018-11-29T16:51:09.068Z,3.44
2018-11-29T16:53:35.156Z,3.57
2018-11-29T16:56:01.150Z,3.47
2018-11-29T16:58:27.144Z,3.61
2018-11-29T17:00:53.131Z,3.74
2018-11-29T17:03:19.159Z,3.77
2018-11-29T17:05:45.148Z,3.67
2018-11-29T17:08:11.720Z,3.63
2018-11-29T17:10:37.681Z,3.66
2018-11-29T17:13:03.663Z,3.63
2018-11-29T17:15:29.657Z,3.15
2018-11-29T17:17:55.620Z,3.33
2018-11-29T17:20:21.586Z,3.71
2018-11-29T17:22:47.580Z,3.43
2018-11-29T17:25:13.678Z,3.56
2018-11-29T17:27:39.820Z,3.74
2018-11-29T17:30:05.832Z,3.61
2018-11-29T17:32:31.852Z,3.53
2018-11-29T17:34:58.055Z,3.39
2018-11-29T17:37:24.098Z,3.35
2018-11-29T17:39:50.139Z,2.13
2018-11-29T17:42:16.227Z,3.32
2018-11-29T17:44:42.236Z,3.30
2018-11-29T17:49:41.071Z,3.28
2018-11-29T17:52:14.167Z,3.31
2018-11-29T17:54:43.261Z,3.28
2018-11-29T17:57:11.504Z,3.06
2018-11-29T17:59:37.691Z,3.11
2018-11-29T18:02:03.752Z,3.17
2018-11-29T18:04:31.781Z,3.42
2018-11-29T18:06:59.734Z,3.27
2018-11-29T18:09:25.742Z,3.58
2018-11-29T18:11:51.744Z,3.46
2018-11-29T18:14:19.883Z,3.21
2018-11-29T18:16:51.605Z,3.18
2018-11-29T18:19:20.306Z,3.26
2018-11-29T18:21:46.405Z,3.24
2018-11-29T18:24:17.448Z,3.16
2018-11-29T18:26:48.824Z,3.27
2018-11-29T18:29:16.589Z,3.10
2018-11-29T18:31:42.801Z,2.96
2018-11-29T18:34:08.752Z,3.08
2018-11-29T18:36:35.964Z,2.99
2018-11-29T18:39:02.118Z,2.93
2018-11-29T18:41:28.160Z,2.94
2018-11-29T18:43:55.063Z,3.07
2018-11-29T18:46:24.904Z,2.92
2018-11-29T18:48:54.937Z,2.84
2018-11-29T18:51:20.913Z,2.96
2018-11-29T18:53:47.909Z,2.92
2018-11-29T18:56:13.906Z,2.93
2018-11-29T18:58:39.885Z,2.87
2018-11-29T19:01:05.869Z,2.69
2018-11-29T19:03:31.853Z,2.68
2018-11-29T19:05:57.848Z,2.68
2018-11-29T19:08:23.870Z,2.65
2018-11-29T19:10:49.855Z,2.83
2018-11-29T19:13:15.856Z,2.82
2018-11-29T19:15:41.821Z,2.74
2018-11-29T19:18:10.567Z,2.75
2018-11-29T19:20:34.051Z,2.54
2018-11-29T19:23:01.014Z,2.74
2018-11-29T19:25:27.153Z,2.58
2018-11-29T19:27:53.830Z,2.73
2018-11-29T19:30:20.002Z,2.80
2018-11-29T19:32:46.137Z,2.85
2018-11-29T19:35:12.208Z,2.66
2018-11-29T19:37:38.243Z,2.72
2018-11-29T19:40:04.270Z,2.73
2018-11-29T19:42:30.301Z,2.87
2018-11-29T19:44:56.300Z,2.70
2018-11-29T19:47:22.313Z,2.59
2018-11-29T19:49:48.359Z,2.80
2018-11-29T19:52:14.381Z,2.75
2018-11-29T19:54:40.376Z,2.81
2018-11-29T19:57:06.398Z,2.89
2018-11-29T20:02:04.009Z,2.61
2018-11-29T20:04:30.002Z,2.63
2018-11-29T20:06:55.976Z,2.51
2018-11-29T20:09:21.968Z,2.49
2018-11-29T20:11:48.023Z,2.69
2018-11-29T20:14:14.036Z,2.45
2018-11-29T20:16:40.134Z,2.86
2018-11-29T20:19:06.156Z,2.93
2018-11-29T20:21:36.012Z,2.66
2018-11-29T20:24:02.033Z,2.69
2018-11-29T20:26:28.132Z,2.66
2018-11-29T20:28:54.155Z,2.54
2018-11-29T20:31:20.120Z,2.70
2018-11-29T20:33:46.152Z,2.49
2018-11-29T20:36:12.169Z,2.52
2018-11-29T20:41:15.998Z,2.55
2018-11-29T20:43:42.651Z,2.64
2018-11-29T20:46:13.195Z,2.56
2018-11-29T20:48:41.210Z,2.69
2018-11-29T20:51:10.610Z,2.40
2018-11-29T20:53:36.599Z,2.23
2018-11-29T20:56:02.593Z,2.33
2018-11-29T20:58:28.571Z,2.64
2018-11-29T21:00:54.529Z,2.44
2018-11-29T21:03:20.504Z,2.21
2018-11-29T21:05:46.486Z,2.21
2018-11-29T21:08:12.478Z,2.28
2018-11-29T21:10:38.469Z,2.23
2018-11-29T21:13:04.456Z,2.12
2018-11-29T21:15:30.448Z,2.20
2018-11-29T21:17:56.438Z,2.23
2018-11-29T21:20:22.468Z,2.29
2018-11-29T21:22:51.583Z,2.25
2018-11-29T21:25:17.587Z,2.15
2018-11-29T21:27:43.571Z,2.29
2018-11-29T21:30:09.581Z,2.28
2018-11-29T21:32:35.572Z,2.07
2018-11-29T21:35:01.637Z,2.19
2018-11-29T21:37:27.629Z,2.15
2018-11-29T21:39:53.626Z,2.07
2018-11-29T21:42:19.604Z,2.17
2018-11-29T21:44:45.578Z,1.99
2018-11-29T21:47:11.557Z,2.28
2018-11-29T21:49:37.580Z,1.91
2018-11-29T21:52:03.562Z,2.09
2018-11-29T21:54:29.558Z,1.94
2018-11-29T21:56:55.552Z,1.92
2018-11-29T21:59:21.549Z,1.95
2018-11-29T22:01:47.539Z,1.91
2018-11-29T22:04:13.509Z,2.10
2018-11-29T22:06:39.496Z,1.91
2018-11-29T22:09:05.490Z,2.09
2018-11-29T22:11:31.484Z,1.96
2018-11-29T22:13:57.460Z,1.83
2018-11-29T22:16:23.460Z,2.04
2018-11-29T22:18:49.483Z,2.05
2018-11-29T22:21:15.517Z,2.05
2018-11-29T22:23:41.505Z,1.91
2018-11-29T22:26:07.496Z,1.72
2018-11-29T22:28:33.485Z,1.90
2018-11-29T22:30:59.468Z,1.84
2018-11-29T22:33:25.458Z,2.05
2018-11-29T22:35:51.448Z,1.81
2018-11-29T22:38:17.460Z,2.07
2018-11-29T22:40:43.479Z,2.15
2018-11-29T22:43:09.452Z,1.99
2018-11-29T22:45:35.425Z,2.11
2018-11-29T22:48:01.403Z,1.97
2018-11-29T22:50:27.382Z,2.10
2018-11-29T22:52:53.388Z,1.96
2018-11-29T22:55:19.374Z,1.83
2018-11-29T22:57:45.338Z,1.90
2018-11-29T23:00:11.297Z,1.91
2018-11-29T23:02:37.291Z,1.98
2018-11-29T23:05:03.289Z,2.11
2018-11-29T23:07:29.281Z,1.98
2018-11-29T23:09:55.249Z,1.93
2018-11-29T23:12:21.228Z,1.90
2018-11-29T23:14:47.221Z,1.98
2018-11-29T23:17:13.183Z,1.75
2018-11-29T23:19:39.163Z,1.70
2018-11-29T23:22:05.165Z,1.63
2018-11-29T23:24:31.140Z,1.70
2018-11-29T23:26:57.167Z,1.64
2018-11-29T23:29:23.129Z,1.75
2018-11-29T23:31:49.107Z,1.87
2018-11-29T23:34:20.910Z,1.95
2018-11-29T23:36:46.908Z,1.91
2018-11-29T23:39:12.891Z,1.82
2018-11-29T23:41:38.865Z,1.76
2018-11-29T23:44:04.837Z,1.72
2018-11-29T23:46:30.788Z,1.79
2018-11-29T23:48:56.780Z,1.79
2018-11-29T23:51:22.763Z,1.88
2018-11-29T23:53:48.749Z,1.55
2018-11-29T23:56:14.722Z,1.54
2018-11-29T23:58:40.688Z,1.73
